Terminal Aerodrome Forecast
Issued by NWS

Home | Current Version | Previous Version | Text Only | Print | Product List | Glossary On
Versions: 1 2 3 4 5 6 7 8 9 10 11 12 13 14 15
000
FTUS46 KEKA 271139
TAFUKI
TAF
KUKI 271139Z 2712/2812 00000KT P6SM FEW250
     FM272200 29005KT P6SM BKN250
     FM280300 00000KT P6SM FEW050 OVC200
     FM280900 00000KT P6SM FEW025 OVC100=

USA.gov is the U.S. government's official web portal to all federal, state and local government web resources and services.